Buoy 21901

sailwx.info

Track history (hours):
 
Tides and Currents Weather Stations Pressure Air Temp Water Temp Dewpoint Dewpoint Depression Visibility Wind Speed Wind Dir Waves Ship Positions

Drifting buoy 21901

Last reported at 2018-Mar-06 10:50 UTC. Time now 2018-May-26 13:22 UTC.
Position N 11°35' E 162°40'.
Warning: this ship's position is months out of date.

Barometer 1007.4 mb
Water temperature 27.2 ° C

Date/timePositionNaut miles runAvg speedWind from/ knotsBaromVisibWave heightAir tempDewpointWater temp
2018-Mar-06 10:50N 11°35' E 162°40'1 0.6 1007.4 27.2
2018-Mar-06 09:50N 11°36' E 162°40'1 0.6 1007.2 27.2
2018-Mar-06 08:50N 11°36' E 162°40'1 1.3 1006.7 27.2
2018-Mar-06 07:50N 11°37' E 162°41'2 1.8 1006.1 27.3
2018-Mar-06 06:50N 11°38' E 162°41'0 0.0 1005.6 27.3
2018-Mar-06 05:50N 11°38' E 162°41'2 2.4 1005.0 27.4
2018-Mar-06 04:50N 11°39' E 162°44'0 0.0 1004.7 27.4
2018-Mar-06 03:50N 11°39' E 162°44'0 0.0 1004.6 27.4
2018-Mar-06 02:40N 11°39' E 162°44'0 0.0 1005.5 27.4
2018-Mar-06 01:50N 11°39' E 162°44'6 1.2 1006.5 27.3
2018-Mar-05 20:50N 11°43' E 162°48'0 0.0 1007.9 27.2
2018-Mar-05 19:50N 11°43' E 162°48'1 0.8 1007.6 27.2
2018-Mar-05 18:50N 11°44' E 162°49'1 0.8 1006.9 27.2
2018-Mar-05 17:50N 11°44' E 162°49'0 0.0 1006.6 27.2
2018-Mar-05 16:50N 11°44' E 162°49'10 9.7 1006.7 27.2
2018-Mar-05 15:50N 11°50' E 162°57'0 0.0 1007.0 27.2
2018-Mar-05 11:50N 11°50' E 162°57'1 0.6 1009.1 27.2
2018-Mar-05 09:50N 11°50' E 162°58'2 1.5 1008.7 27.2
2018-Mar-05 08:40N 11°50' E 163°00'1 0.7 1008.2 27.2
2018-Mar-05 07:50N 11°50' E 163°01'0 0.0 1007.8 27.3
2018-Mar-05 06:50N 11°50' E 163°01'3 3.0 1007.5 27.3
2018-Mar-05 05:50N 11°51' E 163°04'0 0.0 1007.2 27.3
2018-Mar-05 04:50N 11°51' E 163°04'2 1.8 1007.0 27.4
2018-Mar-05 03:50N 11°51' E 163°05'0 0.0 1007.2 27.3
2018-Mar-05 02:50N 11°51' E 163°05'0 0.0 1007.8 27.3
2018-Mar-05 01:50N 11°51' E 163°05'23 0.8 1008.7 27.2
2018-Mar-03 20:50N 11°41' E 163°26'1 1.2 1011.8 27.2
2018-Mar-03 19:50N 11°41' E 163°28'1 1.3 1011.3 27.2
2018-Mar-03 18:50N 11°41' E 163°29'1 1.2 1010.8 27.2
2018-Mar-03 17:50N 11°41' E 163°30'0 0.0 1010.2 27.2
2018-Mar-03 16:50N 11°41' E 163°30'5 5.1 1010.2 27.2
2018-Mar-03 15:50N 11°38' E 163°34'0 0.0 1010.4 27.2
2018-Mar-03 10:50N 11°38' E 163°34'2 1.7 1012.5 27.4
2018-Mar-03 09:50N 11°37' E 163°35'1 0.6 1012.0 27.4
2018-Mar-03 08:50N 11°37' E 163°36'1 0.6 1011.2 27.5
2018-Mar-03 07:50N 11°37' E 163°37'1 1.2 1010.5 27.5
2018-Mar-03 06:50N 11°37' E 163°38'0 0.0 1009.8 27.6
2018-Mar-03 05:50N 11°37' E 163°38'7 7.5 1009.5 27.6
2018-Mar-03 04:50N 11°34' E 163°45'0 0.0 1009.1 27.6
2018-Mar-03 03:50N 11°34' E 163°45'0 0.0 1009.3 27.6
2018-Mar-03 02:50N 11°34' E 163°45'1 0.2 1009.5 27.6
2018-Mar-02 21:50N 11°34' E 163°46'4 1.8 1012.8 27.6
2018-Mar-02 19:50N 11°34' E 163°50'9 2.2 1011.5 27.6
2018-Mar-02 15:50N 11°34' E 163°59'1 0.1 1010.7 27.6
2018-Mar-02 05:50N 11°34' E 164°00'0 0.0 1009.2 27.6
2018-Mar-02 04:50N 11°34' E 164°00'0 0.0 1008.8 27.6
2018-Mar-02 03:50N 11°34' E 164°00'0 0.0 1008.8 27.6
2018-Mar-02 02:50N 11°34' E 164°00'3 1.0 1009.4 27.6
2018-Mar-01 23:50N 11°34' E 164°03'0 0.0 1011.9 27.6
2018-Mar-01 22:50N 11°34' E 164°03'2 1.9 1012.3 27.6
2018-Mar-01 21:50N 11°33' E 164°05'0 0.0 1011.8 27.6
2018-Mar-01 20:50N 11°33' E 164°05'1 1.2 1011.6 27.6
2018-Mar-01 19:50N 11°33' E 164°06'1 0.6 1010.7 27.6
2018-Mar-01 18:50N 11°33' E 164°07'2 1.9 1009.9 27.6
2018-Mar-01 17:50N 11°34' E 164°08'1 1.2 1009.6 27.6
2018-Mar-01 16:50N 11°34' E 164°10'0 0.0 1009.8 27.6
2018-Mar-01 15:50N 11°34' E 164°10'5 1.0 1009.9 27.6
2018-Mar-01 10:50N 11°32' E 164°14'0 0.0 1011.8 27.6
2018-Mar-01 09:50N 11°32' E 164°14'1 1.2 1011.5 27.6
2018-Mar-01 08:50N 11°32' E 164°16'1 0.6 1010.9 27.6
2018-Mar-01 07:50N 11°32' E 164°16'2 1.9 1010.2 27.6
2018-Mar-01 06:50N 11°32' E 164°18'1 1.3 1009.6 27.6
2018-Mar-01 05:50N 11°32' E 164°19'0 0.0 1008.8 27.6
2018-Mar-01 04:50N 11°32' E 164°19'31 0.7 1008.5 27.6
2018-Feb-27 06:50N 11°40' E 164°50'0 0.0 1009.8 27.4
2018-Feb-27 05:50N 11°40' E 164°50'1 0.6 1009.1 27.4
2018-Feb-27 04:50N 11°40' E 164°50'0 0.0 1008.8 27.4
2018-Feb-27 03:50N 11°40' E 164°50'0 0.0 1008.9 27.4
2018-Feb-27 02:50N 11°40' E 164°50'3 0.7 1009.2 27.4
2018-Feb-26 22:50N 11°41' E 164°53'1 0.6 1011.8 27.3
2018-Feb-26 21:50N 11°41' E 164°53'1 0.8 1012.0 27.3
2018-Feb-26 20:50N 11°41' E 164°54'1 1.3 1011.3 27.3
2018-Feb-26 19:50N 11°42' E 164°55'0 0.0 1010.7 27.2
2018-Feb-26 18:50N 11°42' E 164°55'0 0.0 1010.0 27.2
2018-Feb-26 17:50N 11°42' E 164°55'1 0.6 1009.6 27.2
2018-Feb-26 16:50N 11°42' E 164°56'1 0.6 1009.6 27.2
2018-Feb-26 15:50N 11°42' E 164°56'1 1.3 1009.4 27.2
2018-Feb-26 14:50N 11°43' E 164°57'0 0.0 1009.8 27.2
2018-Feb-26 10:50N 11°43' E 164°57'1 0.6 1011.7 27.3
2018-Feb-26 09:50N 11°43' E 164°58'0 0.0 1011.7 27.3
2018-Feb-26 08:50N 11°43' E 164°58'1 0.6 1011.2 27.3
2018-Feb-26 07:50N 11°43' E 164°58'1 0.6 1010.4 27.3
2018-Feb-26 06:50N 11°44' E 164°58'1 0.6 1009.7 27.3
2018-Feb-26 05:50N 11°43' E 164°58'1 0.6 1009.4 27.3
2018-Feb-26 04:50N 11°44' E 164°58'1 1.3 1009.2 27.3
2018-Feb-26 03:50N 11°44' E 164°59'0 0.0 1009.0 27.3
2018-Feb-26 02:50N 11°44' E 164°59'0 0.0 1009.5 27.3
2018-Feb-26 01:50N 11°44' E 164°59'2 0.8 1010.3 27.2
2018-Feb-25 23:50N 11°46' E 165°01'0 0.0 1011.8 27.2
2018-Feb-25 22:50N 11°46' E 165°01'   1012.3 27.2
Track history (hours):
 
Tides and Currents Weather Stations Pressure Air Temp Water Temp Dewpoint Dewpoint Depression Visibility Wind Speed Wind Dir Waves Ship Positions

Drifting buoy 21901

Last reported at 2018-Mar-06 10:50 UTC. Time now 2018-May-26 13:22 UTC.
Position N 11°35' E 162°40'.
Warning: this ship's position is months out of date.

Barometer 1007.4 mb
Water temperature 27.2 ° C

Date/timePositionNaut miles runAvg speedWind from/ knotsBaromVisibWave heightAir tempDewpointWater temp
2018-Mar-06 10:50N 11°35' E 162°40'1 0.6 1007.4 27.2
2018-Mar-06 09:50N 11°36' E 162°40'1 0.6 1007.2 27.2
2018-Mar-06 08:50N 11°36' E 162°40'1 1.3 1006.7 27.2
2018-Mar-06 07:50N 11°37' E 162°41'2 1.8 1006.1 27.3
2018-Mar-06 06:50N 11°38' E 162°41'0 0.0 1005.6 27.3
2018-Mar-06 05:50N 11°38' E 162°41'2 2.4 1005.0 27.4
2018-Mar-06 04:50N 11°39' E 162°44'0 0.0 1004.7 27.4
2018-Mar-06 03:50N 11°39' E 162°44'0 0.0 1004.6 27.4
2018-Mar-06 02:40N 11°39' E 162°44'0 0.0 1005.5 27.4
2018-Mar-06 01:50N 11°39' E 162°44'6 1.2 1006.5 27.3
2018-Mar-05 20:50N 11°43' E 162°48'0 0.0 1007.9 27.2
2018-Mar-05 19:50N 11°43' E 162°48'1 0.8 1007.6 27.2
2018-Mar-05 18:50N 11°44' E 162°49'1 0.8 1006.9 27.2
2018-Mar-05 17:50N 11°44' E 162°49'0 0.0 1006.6 27.2
2018-Mar-05 16:50N 11°44' E 162°49'10 9.7 1006.7 27.2
2018-Mar-05 15:50N 11°50' E 162°57'0 0.0 1007.0 27.2
2018-Mar-05 11:50N 11°50' E 162°57'1 0.6 1009.1 27.2
2018-Mar-05 09:50N 11°50' E 162°58'2 1.5 1008.7 27.2
2018-Mar-05 08:40N 11°50' E 163°00'1 0.7 1008.2 27.2
2018-Mar-05 07:50N 11°50' E 163°01'0 0.0 1007.8 27.3
2018-Mar-05 06:50N 11°50' E 163°01'3 3.0 1007.5 27.3
2018-Mar-05 05:50N 11°51' E 163°04'0 0.0 1007.2 27.3
2018-Mar-05 04:50N 11°51' E 163°04'2 1.8 1007.0 27.4
2018-Mar-05 03:50N 11°51' E 163°05'0 0.0 1007.2 27.3
2018-Mar-05 02:50N 11°51' E 163°05'0 0.0 1007.8 27.3
2018-Mar-05 01:50N 11°51' E 163°05'23 0.8 1008.7 27.2
2018-Mar-03 20:50N 11°41' E 163°26'1 1.2 1011.8 27.2
2018-Mar-03 19:50N 11°41' E 163°28'1 1.3 1011.3 27.2
2018-Mar-03 18:50N 11°41' E 163°29'1 1.2 1010.8 27.2
2018-Mar-03 17:50N 11°41' E 163°30'0 0.0 1010.2 27.2
2018-Mar-03 16:50N 11°41' E 163°30'5 5.1 1010.2 27.2
2018-Mar-03 15:50N 11°38' E 163°34'0 0.0 1010.4 27.2
2018-Mar-03 10:50N 11°38' E 163°34'2 1.7 1012.5 27.4
2018-Mar-03 09:50N 11°37' E 163°35'1 0.6 1012.0 27.4
2018-Mar-03 08:50N 11°37' E 163°36'1 0.6 1011.2 27.5
2018-Mar-03 07:50N 11°37' E 163°37'1 1.2 1010.5 27.5
2018-Mar-03 06:50N 11°37' E 163°38'0 0.0 1009.8 27.6
2018-Mar-03 05:50N 11°37' E 163°38'7 7.5 1009.5 27.6
2018-Mar-03 04:50N 11°34' E 163°45'0 0.0 1009.1 27.6
2018-Mar-03 03:50N 11°34' E 163°45'0 0.0 1009.3 27.6
2018-Mar-03 02:50N 11°34' E 163°45'1 0.2 1009.5 27.6
2018-Mar-02 21:50N 11°34' E 163°46'4 1.8 1012.8 27.6
2018-Mar-02 19:50N 11°34' E 163°50'9 2.2 1011.5 27.6
2018-Mar-02 15:50N 11°34' E 163°59'1 0.1 1010.7 27.6
2018-Mar-02 05:50N 11°34' E 164°00'0 0.0 1009.2 27.6
2018-Mar-02 04:50N 11°34' E 164°00'0 0.0 1008.8 27.6
2018-Mar-02 03:50N 11°34' E 164°00'0 0.0 1008.8 27.6
2018-Mar-02 02:50N 11°34' E 164°00'3 1.0 1009.4 27.6
2018-Mar-01 23:50N 11°34' E 164°03'0 0.0 1011.9 27.6
2018-Mar-01 22:50N 11°34' E 164°03'2 1.9 1012.3 27.6
2018-Mar-01 21:50N 11°33' E 164°05'0 0.0 1011.8 27.6
2018-Mar-01 20:50N 11°33' E 164°05'1 1.2 1011.6 27.6
2018-Mar-01 19:50N 11°33' E 164°06'1 0.6 1010.7 27.6
2018-Mar-01 18:50N 11°33' E 164°07'2 1.9 1009.9 27.6
2018-Mar-01 17:50N 11°34' E 164°08'1 1.2 1009.6 27.6
2018-Mar-01 16:50N 11°34' E 164°10'0 0.0 1009.8 27.6
2018-Mar-01 15:50N 11°34' E 164°10'5 1.0 1009.9 27.6
2018-Mar-01 10:50N 11°32' E 164°14'0 0.0 1011.8 27.6
2018-Mar-01 09:50N 11°32' E 164°14'1 1.2 1011.5 27.6
2018-Mar-01 08:50N 11°32' E 164°16'1 0.6 1010.9 27.6
2018-Mar-01 07:50N 11°32' E 164°16'2 1.9 1010.2 27.6
2018-Mar-01 06:50N 11°32' E 164°18'1 1.3 1009.6 27.6
2018-Mar-01 05:50N 11°32' E 164°19'0 0.0 1008.8 27.6
2018-Mar-01 04:50N 11°32' E 164°19'31 0.7 1008.5 27.6
2018-Feb-27 06:50N 11°40' E 164°50'0 0.0 1009.8 27.4
2018-Feb-27 05:50N 11°40' E 164°50'1 0.6 1009.1 27.4
2018-Feb-27 04:50N 11°40' E 164°50'0 0.0 1008.8 27.4
2018-Feb-27 03:50N 11°40' E 164°50'0 0.0 1008.9 27.4
2018-Feb-27 02:50N 11°40' E 164°50'3 0.7 1009.2 27.4
2018-Feb-26 22:50N 11°41' E 164°53'1 0.6 1011.8 27.3
2018-Feb-26 21:50N 11°41' E 164°53'1 0.8 1012.0 27.3
2018-Feb-26 20:50N 11°41' E 164°54'1 1.3 1011.3 27.3
2018-Feb-26 19:50N 11°42' E 164°55'0 0.0 1010.7 27.2
2018-Feb-26 18:50N 11°42' E 164°55'0 0.0 1010.0 27.2
2018-Feb-26 17:50N 11°42' E 164°55'1 0.6 1009.6 27.2
2018-Feb-26 16:50N 11°42' E 164°56'1 0.6 1009.6 27.2
2018-Feb-26 15:50N 11°42' E 164°56'1 1.3 1009.4 27.2
2018-Feb-26 14:50N 11°43' E 164°57'0 0.0 1009.8 27.2
2018-Feb-26 10:50N 11°43' E 164°57'1 0.6 1011.7 27.3
2018-Feb-26 09:50N 11°43' E 164°58'0 0.0 1011.7 27.3
2018-Feb-26 08:50N 11°43' E 164°58'1 0.6 1011.2 27.3
2018-Feb-26 07:50N 11°43' E 164°58'1 0.6 1010.4 27.3
2018-Feb-26 06:50N 11°44' E 164°58'1 0.6 1009.7 27.3
2018-Feb-26 05:50N 11°43' E 164°58'1 0.6 1009.4 27.3
2018-Feb-26 04:50N 11°44' E 164°58'1 1.3 1009.2 27.3
2018-Feb-26 03:50N 11°44' E 164°59'0 0.0 1009.0 27.3
2018-Feb-26 02:50N 11°44' E 164°59'0 0.0 1009.5 27.3
2018-Feb-26 01:50N 11°44' E 164°59'2 0.8 1010.3 27.2
2018-Feb-25 23:50N 11°46' E 165°01'0 0.0 1011.8 27.2
2018-Feb-25 22:50N 11°46' E 165°01'   1012.3 27.2

Dump ship's entire track history